Igor I Sikorsky Memorial Airport
KBDR : now visible

Airfield :











YOU CAN JOIN US ON...

 
LOGIN :

Register | Disclaimer

   EN    FR    IT 

 









Legend :    VFR   Marginal VFR   IFR   Intensive IFR   Very Intensive IFR
Visi :
Ceiling :
>= 8 km
>= 3000ft
5 to 8 km
1000 to 3000 ft
1500m to 5 km
500 to 1000 ft
800 to 1500m
200 to 500 ft
< 800m
< 200 ft
Symbols :   Thunderstorms  Fog  Heavy snow  Heavy precipitations  Wind > 20 kt






- Airport Elevation : 9 ft
- IATA code : BDR


KBDR - Igor I Sikorsky Memorial

CURRENT METAR :
  • 220052Z 13005KT 10SM FEW027 01/M04 A3034 RMK AO2 SLP274 T00111044 $

EXPIRED METARs :
  • 220032Z 12007KT 10SM SCT028 01/M04 A3034 RMK AO2 T00111044 $
  • 220020Z 13007KT 10SM BKN028 02/M04 A3034 RMK AO2 T00171044 $
  • 212352Z 13007KT 10SM SCT032 02/M04 A3035 RMK AO2 SLP277 T00171044 10039 20017 56010 $
  • 212252Z 12013KT 10SM OVC034 02/M03 A3036 RMK AO2 SLP280 T00221033 $
  • 212152Z 11011KT 10SM OVC038 03/M03 A3037 RMK AO2 SLP282 T00281033 $
  • 212052Z 09008KT 10SM SCT038 03/M03 A3038 RMK AO2 SLP287 T00281033 55017 $

TAF KBDR
Valid from the 22 at 00:00 until the 23 at 00:00 UTC


212336Z 2200/2224 12010KT P6SM BKN030
FM220200 VRB03KT P6SM BKN030
TEMPO 2203/2207 BKN025
FM220700 VRB03KT P6SM BKN030
TEMPO 2207/2210 BKN025
FM221000 VRB03KT P6SM BKN025
FM221500 18005KT P6SM BKN030
KZBW FIR / North America



MET'MAP, your aeronautical weather chart ! - Copyright ORBIFLY December 2007 - Disclaimer

ORBIFLY MET'MAP TEAM :

Programming & Development : Alexandra Zaïnal
Original concept : Baudouin d'Aumeries
Technical & hardware support : Manuel Goepfert
Assistance : Marc-Olivier Méhu




SOURCES & CREDITS :

   NOAA       Earth
Advisory